createdAt,value
2022-12-19T00:00:29.526Z,100369.69
2022-12-19T00:02:59.041Z,100372.78
2022-12-19T00:05:27.142Z,100367.00
2022-12-19T00:07:55.136Z,100365.75
2022-12-19T00:10:23.453Z,100370.06
2022-12-19T00:12:51.426Z,100358.53
2022-12-19T00:15:19.453Z,100360.88
2022-12-19T00:17:47.454Z,100369.72
2022-12-19T00:20:18.576Z,100364.31
2022-12-19T00:22:46.814Z,100360.38
2022-12-19T00:25:14.899Z,100356.53
2022-12-19T00:27:44.082Z,100357.34
2022-12-19T00:30:13.377Z,100361.78
2022-12-19T00:32:42.425Z,100357.94
2022-12-19T00:35:10.821Z,100361.06
2022-12-19T00:37:41.463Z,100366.88
2022-12-19T00:40:17.768Z,100365.28
2022-12-19T00:42:51.702Z,100359.63
2022-12-19T00:45:21.593Z,100353.31
2022-12-19T00:47:49.595Z,100354.09
2022-12-19T00:50:17.725Z,100356.94
2022-12-19T00:52:47.133Z,100353.72
2022-12-19T00:55:19.288Z,100353.63
2022-12-19T00:57:48.218Z,100351.56
2022-12-19T01:00:18.318Z,100353.09
2022-12-19T01:02:46.919Z,100356.69
2022-12-19T01:05:15.166Z,100356.38
2022-12-19T01:07:43.251Z,100357.16
2022-12-19T01:10:12.778Z,100347.50
2022-12-19T01:12:48.398Z,100348.41
2022-12-19T01:15:20.543Z,100333.81
2022-12-19T01:17:49.000Z,100319.19
2022-12-19T01:20:28.893Z,100327.66
2022-12-19T01:23:00.128Z,100313.34
2022-12-19T01:25:30.229Z,100311.78
2022-12-19T01:27:58.869Z,100309.50
2022-12-19T01:30:27.654Z,100309.38
2022-12-19T01:32:57.967Z,100309.13
2022-12-19T01:35:28.950Z,100298.72
2022-12-19T01:38:07.661Z,100292.56
2022-12-19T01:40:39.240Z,100299.50
2022-12-19T01:43:13.826Z,100289.78
2022-12-19T01:45:45.870Z,100282.19
2022-12-19T01:48:18.124Z,100281.03
2022-12-19T01:51:02.084Z,100283.09
2022-12-19T01:53:35.752Z,100284.38
2022-12-19T01:56:09.936Z,100281.94
2022-12-19T01:58:40.986Z,100275.63
2022-12-19T02:01:09.308Z,100277.81
2022-12-19T02:03:39.058Z,100268.84
2022-12-19T02:06:13.442Z,100260.97
2022-12-19T02:08:43.322Z,100264.16
2022-12-19T02:11:12.867Z,100263.97
2022-12-19T02:13:41.733Z,100260.09
2022-12-19T02:16:23.443Z,100262.56
2022-12-19T02:19:03.992Z,100245.41
2022-12-19T02:21:55.115Z,100254.31
2022-12-19T02:24:53.672Z,100258.66
2022-12-19T02:27:59.265Z,100252.44
2022-12-19T02:30:43.485Z,100242.91
2022-12-19T02:33:17.430Z,100235.88
2022-12-19T02:35:53.503Z,100238.97
2022-12-19T02:38:30.313Z,100232.13
2022-12-19T02:41:02.648Z,100234.78
2022-12-19T02:43:36.638Z,100227.25
2022-12-19T02:46:08.567Z,100230.88
2022-12-19T02:48:38.379Z,100227.41
2022-12-19T02:51:07.161Z,100229.66
2022-12-19T02:53:38.489Z,100220.09
2022-12-19T02:56:34.789Z,100215.16
2022-12-19T02:59:24.782Z,100212.28
2022-12-19T03:01:58.970Z,100212.91
2022-12-19T03:04:40.847Z,100213.94
2022-12-19T03:07:21.358Z,100201.81
2022-12-19T03:09:59.950Z,100206.06
2022-12-19T03:12:34.246Z,100197.22
2022-12-19T03:15:03.696Z,100196.81
2022-12-19T03:17:37.405Z,100200.31
2022-12-19T03:20:11.437Z,100193.94
2022-12-19T03:22:39.753Z,100189.28
2022-12-19T03:25:08.699Z,100188.94
2022-12-19T03:27:40.593Z,100187.53
2022-12-19T03:30:12.556Z,100184.44
2022-12-19T03:32:45.247Z,100189.91
2022-12-19T03:35:16.905Z,100193.28
2022-12-19T03:37:47.427Z,100187.75
2022-12-19T03:40:19.000Z,100181.78
2022-12-19T03:43:07.572Z,100190.34
2022-12-19T03:45:46.424Z,100196.00
2022-12-19T03:48:20.844Z,100195.69
2022-12-19T03:51:00.009Z,100198.34
2022-12-19T03:53:38.122Z,100189.72
2022-12-19T03:56:14.389Z,100206.13
2022-12-19T03:58:46.754Z,100209.03
2022-12-19T04:01:15.672Z,100206.25
2022-12-19T04:03:45.592Z,100214.53
2022-12-19T04:06:15.658Z,100207.47
2022-12-19T04:08:44.298Z,100203.88
2022-12-19T04:11:20.883Z,100214.38
2022-12-19T04:13:53.457Z,100217.13
2022-12-19T04:16:25.047Z,100214.78
2022-12-19T04:19:00.155Z,100212.88
2022-12-19T04:21:33.757Z,100200.63
2022-12-19T04:24:07.765Z,100201.78
2022-12-19T04:26:38.166Z,100201.16
2022-12-19T04:29:09.118Z,100192.97
2022-12-19T04:31:38.065Z,100192.47
2022-12-19T04:34:07.524Z,100187.97
2022-12-19T04:36:36.058Z,100190.19
2022-12-19T04:39:04.777Z,100179.41
2022-12-19T04:41:34.517Z,100173.25
2022-12-19T04:44:02.836Z,100164.78
2022-12-19T04:46:30.945Z,100169.63
2022-12-19T04:48:58.989Z,100160.50
2022-12-19T04:51:28.563Z,100160.97
2022-12-19T04:53:57.391Z,100155.34
2022-12-19T04:56:25.479Z,100149.88
2022-12-19T04:58:57.902Z,100151.16
2022-12-19T05:01:26.343Z,100143.13
2022-12-19T05:03:57.564Z,100144.66
2022-12-19T05:06:29.552Z,100140.31
2022-12-19T05:08:57.567Z,100142.50
2022-12-19T05:11:25.631Z,100144.41
2022-12-19T05:13:53.684Z,100139.50
2022-12-19T05:16:21.744Z,100136.53
2022-12-19T05:18:49.920Z,100149.84
2022-12-19T05:21:17.898Z,100156.47
2022-12-19T05:23:47.358Z,100153.66
2022-12-19T05:26:15.409Z,100152.69
2022-12-19T05:28:43.436Z,100154.97
2022-12-19T05:31:13.390Z,100160.50
2022-12-19T05:33:42.658Z,100156.41
2022-12-19T05:36:12.072Z,100156.25
2022-12-19T05:38:40.328Z,100151.88
2022-12-19T05:41:11.029Z,100143.31
2022-12-19T05:43:39.160Z,100153.34
2022-12-19T05:46:07.904Z,100152.88
2022-12-19T05:48:36.750Z,100146.66
2022-12-19T05:51:05.109Z,100143.56
2022-12-19T05:53:33.175Z,100146.25
2022-12-19T05:56:06.133Z,100151.31
2022-12-19T05:58:39.629Z,100155.47
2022-12-19T06:01:09.521Z,100151.22
2022-12-19T06:03:38.258Z,100155.38
2022-12-19T06:06:08.550Z,100150.03
2022-12-19T06:08:37.094Z,100137.47
2022-12-19T06:11:07.099Z,100129.75
2022-12-19T06:13:37.243Z,100121.50
2022-12-19T06:16:08.130Z,100137.53
2022-12-19T06:18:40.433Z,100138.06
2022-12-19T06:21:13.158Z,100126.28
2022-12-19T06:23:41.271Z,100116.78
2022-12-19T06:26:18.264Z,100130.97
2022-12-19T06:28:49.459Z,100131.28
2022-12-19T06:31:18.867Z,100129.09
2022-12-19T06:33:46.924Z,100134.63
2022-12-19T06:36:17.990Z,100130.22
2022-12-19T06:38:46.076Z,100123.97
2022-12-19T06:41:31.686Z,100128.22
2022-12-19T06:44:01.983Z,100108.84
2022-12-19T06:46:30.779Z,100128.41
2022-12-19T06:48:58.996Z,100117.03
2022-12-19T06:51:27.482Z,100118.81
2022-12-19T06:53:55.669Z,100129.41
2022-12-19T06:56:24.823Z,100118.81
2022-12-19T06:58:52.994Z,100122.88
2022-12-19T07:01:26.347Z,100119.31
2022-12-19T07:03:55.931Z,100112.47
2022-12-19T07:06:24.705Z,100119.13
2022-12-19T07:08:54.127Z,100106.66
2022-12-19T07:11:22.276Z,100111.13
2022-12-19T07:13:50.288Z,100107.84
2022-12-19T07:16:18.395Z,100112.00
2022-12-19T07:18:47.954Z,100108.56
2022-12-19T07:21:15.993Z,100102.09
2022-12-19T07:23:44.993Z,100107.97
2022-12-19T07:26:13.501Z,100108.53
2022-12-19T07:28:44.508Z,100104.09
2022-12-19T07:31:12.744Z,100114.56
2022-12-19T07:33:44.899Z,100121.16
2022-12-19T07:36:14.263Z,100124.94
2022-12-19T07:38:42.300Z,100123.59
2022-12-19T07:41:10.333Z,100111.41
2022-12-19T07:43:38.312Z,100117.56
2022-12-19T07:46:06.674Z,100132.47
2022-12-19T07:48:34.667Z,100119.63
2022-12-19T07:51:02.777Z,100116.94
2022-12-19T07:53:32.689Z,100110.50
2022-12-19T07:56:00.790Z,100107.41
2022-12-19T07:58:28.841Z,100105.75
2022-12-19T08:00:57.792Z,100105.69
2022-12-19T08:03:26.437Z,100107.56
2022-12-19T08:05:54.677Z,100113.28
2022-12-19T08:08:22.648Z,100108.50
2022-12-19T08:10:52.008Z,100107.94
2022-12-19T08:13:20.022Z,100094.16
2022-12-19T08:15:48.031Z,100102.88
2022-12-19T08:18:16.095Z,100098.47
2022-12-19T08:20:47.113Z,100098.00
2022-12-19T08:23:15.125Z,100084.47
2022-12-19T08:25:43.224Z,100087.47
2022-12-19T08:28:12.619Z,100082.63
2022-12-19T08:30:41.332Z,100083.19
2022-12-19T08:33:09.631Z,100072.84
2022-12-19T08:35:37.791Z,100078.53
2022-12-19T08:38:06.669Z,100081.38
2022-12-19T08:40:35.384Z,100087.94
2022-12-19T08:43:03.353Z,100085.94
2022-12-19T08:45:32.748Z,100089.41
2022-12-19T08:48:00.732Z,100071.72
2022-12-19T08:50:28.784Z,100062.84
2022-12-19T08:52:56.939Z,100060.81
2022-12-19T08:55:25.551Z,100061.47
2022-12-19T08:57:55.888Z,100049.31
2022-12-19T09:00:24.885Z,100050.41
2022-12-19T09:02:55.317Z,100039.38
2022-12-19T09:05:59.558Z,100034.34
2022-12-19T09:08:11.787Z,100039.53
2022-12-19T09:10:40.361Z,100041.75
2022-12-19T09:13:09.572Z,100039.38
2022-12-19T09:15:37.670Z,100048.06
2022-12-19T09:18:08.048Z,100043.66
2022-12-19T09:20:36.129Z,100041.47
2022-12-19T09:23:04.244Z,100059.75
2022-12-19T09:25:32.360Z,100056.06
2022-12-19T09:30:57.113Z,100054.69
2022-12-19T09:33:26.934Z,100044.16
2022-12-19T09:35:56.649Z,100037.38
2022-12-19T09:38:26.496Z,100030.44
2022-12-19T09:41:07.510Z,100029.00
2022-12-19T09:43:53.388Z,100014.78
2022-12-19T09:46:33.364Z,99994.88
2022-12-19T09:49:03.341Z,100003.44
2022-12-19T09:51:38.398Z,100001.19
2022-12-19T09:54:13.579Z,100000.25
2022-12-19T09:56:46.240Z,99996.53
2022-12-19T09:59:22.599Z,99981.97
2022-12-19T10:01:59.152Z,99990.44
2022-12-19T10:04:33.238Z,100005.06
2022-12-19T10:07:20.590Z,100002.41
2022-12-19T10:12:34.643Z,100018.53
2022-12-19T10:12:58.404Z,100011.16
2022-12-19T10:15:38.972Z,100003.28
2022-12-19T10:18:29.528Z,99989.69
2022-12-19T10:21:07.171Z,99988.09
2022-12-19T10:24:07.774Z,99961.91
2022-12-19T10:26:44.400Z,99967.84
2022-12-19T10:29:46.683Z,99955.69
2022-12-19T10:32:22.497Z,99953.63
2022-12-19T10:34:52.182Z,99949.22
2022-12-19T10:37:32.754Z,99950.84
2022-12-19T10:40:16.155Z,99953.75
2022-12-19T10:43:01.385Z,99951.91
2022-12-19T10:45:47.050Z,99938.78
2022-12-19T10:48:20.839Z,99936.00
2022-12-19T10:50:52.940Z,99944.50
2022-12-19T10:53:29.917Z,99921.78
2022-12-19T10:56:02.854Z,99930.00
2022-12-19T10:58:35.181Z,99925.16
2022-12-19T11:01:15.642Z,99928.56
2022-12-19T11:03:46.959Z,99918.91
2022-12-19T11:06:43.030Z,99909.13
2022-12-19T11:09:25.591Z,99909.25
2022-12-19T11:16:09.568Z,99890.84
2022-12-19T11:19:23.334Z,99890.28
2022-12-19T11:27:29.572Z,99881.97
2022-12-19T11:29:35.213Z,99868.06
2022-12-19T11:29:38.650Z,99858.06
2022-12-19T11:30:43.940Z,99851.47
2022-12-19T11:30:44.122Z,99872.00
2022-12-19T11:34:38.489Z,99859.16
2022-12-19T11:37:17.990Z,99858.84
2022-12-19T11:39:49.605Z,99874.00
2022-12-19T11:42:26.041Z,99868.91
2022-12-19T11:45:01.550Z,99866.47
2022-12-19T11:47:36.960Z,99859.84
2022-12-19T11:50:14.595Z,99862.66
2022-12-19T11:53:11.486Z,99868.19
2022-12-19T11:55:45.473Z,99857.50
2022-12-19T11:58:15.376Z,99863.06
2022-12-19T12:00:52.337Z,99848.84
2022-12-19T12:04:03.237Z,99827.06
2022-12-19T12:06:35.420Z,99828.97
2022-12-19T12:12:44.220Z,99832.94
2022-12-19T12:21:09.249Z,99823.78
2022-12-19T12:29:05.419Z,99809.94
2022-12-19T12:31:00.803Z,99818.22
2022-12-19T12:31:25.893Z,99822.91
2022-12-19T12:31:49.679Z,99818.75
2022-12-19T12:31:51.729Z,99816.38
2022-12-19T12:31:52.225Z,99811.78
2022-12-19T12:35:51.511Z,99806.06
2022-12-19T12:39:29.761Z,99798.59
2022-12-19T12:42:12.649Z,99800.28
2022-12-19T12:44:45.949Z,99804.63
2022-12-19T12:47:20.603Z,99802.72
2022-12-19T12:49:54.428Z,99795.41
2022-12-19T12:52:31.205Z,99794.56
2022-12-19T12:54:59.838Z,99796.25
2022-12-19T12:57:37.748Z,99791.44
2022-12-19T13:00:22.490Z,99789.94
2022-12-19T13:02:57.052Z,99778.13
2022-12-19T13:05:35.630Z,99772.06
2022-12-19T13:08:23.938Z,99779.97
2022-12-19T13:10:57.626Z,99760.88
2022-12-19T13:13:54.008Z,99770.69
2022-12-19T13:16:54.284Z,99770.72
2022-12-19T13:19:28.727Z,99761.72
2022-12-19T13:22:17.974Z,99761.97
2022-12-19T13:24:47.443Z,99772.00
2022-12-19T13:27:34.913Z,99763.84
2022-12-19T13:30:21.423Z,99765.69
2022-12-19T13:33:10.281Z,99756.00
2022-12-19T13:39:17.496Z,99756.00
2022-12-19T13:40:00.347Z,99746.47
2022-12-19T13:42:02.708Z,99754.19
2022-12-19T13:44:33.129Z,99748.16
2022-12-19T13:47:01.203Z,99748.38
2022-12-19T13:49:35.139Z,99757.09
2022-12-19T13:52:06.277Z,99754.78
2022-12-19T13:54:45.741Z,99745.78
2022-12-19T13:57:22.437Z,99744.25
2022-12-19T14:00:00.177Z,99735.84
2022-12-19T14:02:34.876Z,99726.63
2022-12-19T14:05:33.808Z,99723.59
2022-12-19T14:08:19.208Z,99716.56
2022-12-19T14:11:40.923Z,99717.72
2022-12-19T14:14:10.158Z,99708.66
2022-12-19T14:16:45.784Z,99715.63
2022-12-19T14:19:24.456Z,99723.50
2022-12-19T14:22:06.855Z,99717.13
2022-12-19T14:24:42.615Z,99717.13
2022-12-19T14:28:18.323Z,99707.72
2022-12-19T14:30:29.765Z,99717.03
2022-12-19T14:33:43.625Z,99701.63
2022-12-19T14:36:06.443Z,99701.31
2022-12-19T14:39:25.330Z,99696.28
2022-12-19T14:42:01.477Z,99685.31
2022-12-19T14:52:11.446Z,99693.03
2022-12-19T14:53:52.475Z,99684.09
2022-12-19T14:54:23.410Z,99676.63
2022-12-19T14:54:28.277Z,99681.41
2022-12-19T14:59:02.507Z,99678.38
2022-12-19T15:01:34.153Z,99680.16
2022-12-19T15:04:52.764Z,99676.78
2022-12-19T15:07:10.036Z,99669.44
2022-12-19T15:11:05.551Z,99663.81
2022-12-19T15:14:48.564Z,99656.25
2022-12-19T15:16:00.573Z,99651.16
2022-12-19T15:18:39.213Z,99654.47
2022-12-19T15:21:09.633Z,99648.31
2022-12-19T15:23:37.817Z,99642.53
2022-12-19T15:26:08.672Z,99633.41
2022-12-19T15:28:43.195Z,99628.94
2022-12-19T15:31:24.551Z,99626.38
2022-12-19T15:34:33.515Z,99631.44
2022-12-19T15:36:40.659Z,99628.72
2022-12-19T15:39:08.709Z,99626.59
2022-12-19T15:41:37.133Z,99629.56
2022-12-19T15:44:10.000Z,99621.06
2022-12-19T15:46:44.744Z,99624.31
2022-12-19T15:49:18.052Z,99618.50
2022-12-19T15:51:46.371Z,99619.28
2022-12-19T15:54:47.153Z,99610.78
2022-12-19T15:57:02.956Z,99622.59
2022-12-19T15:59:38.012Z,99614.81
2022-12-19T16:02:17.547Z,99616.16
2022-12-19T16:04:47.703Z,99615.25
2022-12-19T16:07:18.714Z,99613.34
2022-12-19T16:09:47.450Z,99600.78
2022-12-19T16:12:17.053Z,99596.44
2022-12-19T16:14:45.910Z,99594.16
2022-12-19T16:17:20.440Z,99577.25
2022-12-19T16:19:48.574Z,99582.41
2022-12-19T16:22:19.540Z,99583.88
2022-12-19T16:24:47.722Z,99580.56
2022-12-19T16:27:22.951Z,99578.09
2022-12-19T16:29:51.318Z,99577.66
2022-12-19T16:32:23.106Z,99573.59
2022-12-19T16:34:51.721Z,99578.88
2022-12-19T16:37:19.852Z,99568.16
2022-12-19T16:39:47.933Z,99572.69
2022-12-19T16:42:17.374Z,99561.75
2022-12-19T16:44:48.057Z,99563.22
2022-12-19T16:47:18.347Z,99574.25
2022-12-19T16:49:47.810Z,99561.66
2022-12-19T16:52:16.095Z,99547.31
2022-12-19T16:54:44.197Z,99558.47
2022-12-19T16:57:20.344Z,99550.47
2022-12-19T16:59:49.729Z,99552.50
2022-12-19T17:02:41.742Z,99544.94
2022-12-19T17:05:22.075Z,99548.75
2022-12-19T17:07:50.841Z,99548.94
2022-12-19T17:10:24.361Z,99541.50
2022-12-19T17:12:55.587Z,99549.41
2022-12-19T17:15:28.245Z,99543.31
2022-12-19T17:17:59.335Z,99530.56
2022-12-19T17:20:33.368Z,99528.91
2022-12-19T17:23:01.422Z,99536.31
2022-12-19T17:25:29.540Z,99526.03
2022-12-19T17:27:57.902Z,99534.47
2022-12-19T17:30:26.059Z,99528.34
2022-12-19T17:32:56.777Z,99532.88
2022-12-19T17:35:28.953Z,99527.84
2022-12-19T17:37:59.041Z,99540.56
2022-12-19T17:40:29.525Z,99536.59
2022-12-19T17:42:58.747Z,99529.91
2022-12-19T17:45:29.277Z,99535.88
2022-12-19T17:48:02.881Z,99529.16
2022-12-19T17:50:35.171Z,99515.78
2022-12-19T17:53:05.109Z,99517.19
2022-12-19T17:55:33.778Z,99520.59
2022-12-19T17:58:01.805Z,99518.13
2022-12-19T18:00:33.161Z,99503.72
2022-12-19T18:03:05.999Z,99508.84
2022-12-19T18:05:36.945Z,99505.78
2022-12-19T18:08:20.117Z,99507.78
2022-12-19T18:10:48.270Z,99501.00
2022-12-19T18:13:16.411Z,99506.13
2022-12-19T18:15:44.699Z,99506.81
2022-12-19T18:18:15.184Z,99500.34
2022-12-19T18:20:44.507Z,99500.88
2022-12-19T18:23:19.465Z,99499.53
2022-12-19T18:25:47.562Z,99492.59
2022-12-19T18:28:16.579Z,99483.16
2022-12-19T18:30:45.676Z,99482.94
2022-12-19T18:33:17.709Z,99480.09
2022-12-19T18:35:48.625Z,99487.28
2022-12-19T18:38:20.317Z,99490.13
2022-12-19T18:40:49.327Z,99476.28
2022-12-19T18:43:18.183Z,99482.03
2022-12-19T18:45:48.502Z,99476.25
2022-12-19T18:48:21.989Z,99480.78
2022-12-19T18:50:50.084Z,99482.09
2022-12-19T18:53:26.499Z,99472.03
2022-12-19T18:56:02.666Z,99463.00
2022-12-19T18:58:30.864Z,99466.09
2022-12-19T19:01:02.982Z,99470.19
2022-12-19T19:03:33.911Z,99463.47
2022-12-19T19:06:02.102Z,99462.88
2022-12-19T19:08:35.077Z,99456.69
2022-12-19T19:11:20.372Z,99444.25
2022-12-19T19:13:48.449Z,99442.38
2022-12-19T19:16:19.271Z,99436.56
2022-12-19T19:18:50.064Z,99448.13
2022-12-19T19:21:19.150Z,99435.72
2022-12-19T19:23:51.623Z,99427.94
2022-12-19T19:26:19.704Z,99429.47
2022-12-19T19:28:52.225Z,99427.22
2022-12-19T19:31:23.448Z,99428.56
2022-12-19T19:33:55.995Z,99431.84
2022-12-19T19:36:26.912Z,99430.28
2022-12-19T19:38:58.593Z,99434.00
2022-12-19T19:41:29.832Z,99419.03
2022-12-19T19:43:58.952Z,99423.22
2022-12-19T19:46:27.345Z,99427.66
2022-12-19T19:48:55.925Z,99426.81
2022-12-19T19:51:24.011Z,99431.50
2022-12-19T19:53:52.221Z,99424.69
2022-12-19T19:56:21.602Z,99424.78
2022-12-19T19:58:49.812Z,99430.94
2022-12-19T20:01:18.042Z,99432.16
2022-12-19T20:03:46.462Z,99425.44
2022-12-19T20:06:17.910Z,99433.66
2022-12-19T20:08:47.516Z,99423.50
2022-12-19T20:11:15.624Z,99424.56
2022-12-19T20:13:45.252Z,99413.59
2022-12-19T20:16:16.599Z,99419.09
2022-12-19T20:18:49.812Z,99414.91
2022-12-19T20:21:18.720Z,99420.06
2022-12-19T20:23:47.074Z,99414.13
2022-12-19T20:26:16.379Z,99405.84
2022-12-19T20:28:49.477Z,99398.75
2022-12-19T20:31:19.175Z,99403.22
2022-12-19T20:33:48.558Z,99397.56
2022-12-19T20:36:17.014Z,99397.63
2022-12-19T20:38:45.240Z,99396.53
2022-12-19T20:41:13.422Z,99385.47
2022-12-19T20:43:41.825Z,99386.84
2022-12-19T20:46:13.955Z,99390.84
2022-12-19T20:48:42.997Z,99387.88
2022-12-19T20:51:11.162Z,99377.78
2022-12-19T20:53:41.644Z,99376.78
2022-12-19T20:56:14.017Z,99378.38
2022-12-19T20:58:42.068Z,99373.63
2022-12-19T21:01:14.003Z,99371.91
2022-12-19T21:03:42.883Z,99367.28
2022-12-19T21:06:13.562Z,99371.09
2022-12-19T21:08:43.427Z,99367.88
2022-12-19T21:11:12.489Z,99376.06
2022-12-19T21:13:41.995Z,99366.38
2022-12-19T21:16:14.640Z,99375.41
2022-12-19T21:18:44.944Z,99375.44
2022-12-19T21:21:15.648Z,99372.94
2022-12-19T21:23:44.872Z,99378.06
2022-12-19T21:26:13.347Z,99372.06
2022-12-19T21:28:41.793Z,99370.81
2022-12-19T21:31:16.331Z,99365.47
2022-12-19T21:33:45.318Z,99362.41
2022-12-19T21:36:16.715Z,99367.00
2022-12-19T21:38:44.700Z,99355.13
2022-12-19T21:41:18.717Z,99353.31
2022-12-19T21:43:48.914Z,99337.91
2022-12-19T21:46:19.180Z,99340.66
2022-12-19T21:48:48.940Z,99341.22
2022-12-19T21:51:18.608Z,99334.00
2022-12-19T21:53:46.991Z,99330.56
2022-12-19T21:56:23.783Z,99318.22
2022-12-19T21:58:52.876Z,99319.06
2022-12-19T22:01:23.215Z,99316.38
2022-12-19T22:03:52.328Z,99319.09
2022-12-19T22:06:27.958Z,99319.53
2022-12-19T22:08:57.097Z,99321.09
2022-12-19T22:11:25.873Z,99308.69
2022-12-19T22:13:54.475Z,99312.19
2022-12-19T22:16:24.005Z,99308.69
2022-12-19T22:18:53.158Z,99297.34
2022-12-19T22:21:21.690Z,99293.47
2022-12-19T22:23:49.832Z,99296.88
2022-12-19T22:26:20.643Z,99304.69
2022-12-19T22:28:50.736Z,99299.25
2022-12-19T22:31:21.400Z,99299.28
2022-12-19T22:33:52.420Z,99300.78
2022-12-19T22:36:27.617Z,99291.91
2022-12-19T22:38:57.859Z,99288.44
2022-12-19T22:41:26.491Z,99281.94
2022-12-19T22:43:55.308Z,99282.63
2022-12-19T22:46:26.324Z,99285.28
2022-12-19T22:48:57.429Z,99283.44
2022-12-19T22:51:26.505Z,99277.66
2022-12-19T22:53:54.675Z,99289.34
2022-12-19T22:56:24.538Z,99286.25
2022-12-19T22:58:54.485Z,99281.56
2022-12-19T23:01:24.879Z,99272.41
2022-12-19T23:03:57.189Z,99279.44
2022-12-19T23:06:27.545Z,99280.72
2022-12-19T23:08:55.781Z,99270.63
2022-12-19T23:11:27.182Z,99276.25
2022-12-19T23:13:55.584Z,99272.91
2022-12-19T23:16:23.673Z,99266.00
2022-12-19T23:18:51.833Z,99264.00
2022-12-19T23:21:24.031Z,99253.69
2022-12-19T23:23:54.771Z,99260.34
2022-12-19T23:26:25.116Z,99263.09
2022-12-19T23:28:55.158Z,99260.63
2022-12-19T23:31:23.663Z,99257.66
2022-12-19T23:33:51.987Z,99250.34
2022-12-19T23:36:45.312Z,99247.16
2022-12-19T23:39:10.568Z,99236.56
2022-12-19T23:41:39.102Z,99247.16
2022-12-19T23:44:07.436Z,99236.00
2022-12-19T23:46:35.455Z,99239.38
2022-12-19T23:49:03.563Z,99240.53
2022-12-19T23:51:33.365Z,99237.56
2022-12-19T23:54:01.408Z,99230.97
2022-12-19T23:56:31.470Z,99230.91
2022-12-19T23:59:00.062Z,99234.88
